Latest Weather Observations for Marble Bar

IDW60801

Issued at 5:43 pm WST Thursday 16 August 2018 (issued every 10 minutes, with the page automatically refreshed every 10 minutes)

About weather observations | Map of weather stations | Latest weather observations for WA | Other Formats
Station Details ID: 004106 Name: MARBLE BAR Lat: -21.18 Lon: 119.75 Height: 182.3 m
Data from the previous 72 hours. | See also: Recent months at Marble Bar
Date/Time
WST
Temp
°C
App
Temp
°C
Dew
Point
°C
Rel
Hum
%
Delta-T
°C
Wind Press
QNH
hPa
Press
MSL
hPa
Rain since
9am
mm
Dir  Spd
km/h
Gust
km/h
Spd
kts
Gust
kts
16/05:30pm 27.8 24.2 -13.0 6 15.3 NE 2 4 1 2 1013.2 1012.5 0.0
16/05:00pm 28.9 25.2 -14.5 5 16.1 ENE 2 6 1 3 1013.1 1012.4 0.0
16/04:30pm 29.5 25.8 -14.0 5 16.4 NNW 2 6 1 3 1013.0 1012.3 0.0
16/04:00pm 29.7 25.3 -13.9 5 16.5 ENE 6 11 3 6 1012.9 1012.2 0.0
16/03:30pm 29.8 25.4 -13.8 5 16.5 ESE 6 15 3 8 1012.9 1012.2 0.0
16/03:00pm 29.8 24.8 -13.8 5 16.5 NE 9 17 5 9 1013.0 1012.3 0.0
16/02:30pm 29.9 25.5 -13.8 5 16.6 SE 6 9 3 5 1013.2 1012.5 0.0
16/02:00pm 29.9 25.8 -13.8 5 16.6 NW 4 9 2 5 1013.6 1012.9 0.0
16/01:30pm 29.3 25.0 -11.9 6 16.0 NE 6 20 3 11 1014.0 1013.3 0.0
16/01:00pm 28.9 24.4 -12.2 6 15.8 NE 7 15 4 8 1014.7 1014.0 0.0
16/12:30pm 29.2 24.3 -12.0 6 16.0 NE 9 17 5 9 1015.4 1014.8 0.0
16/12:00pm 29.0 23.7 -12.2 6 15.9 N 11 19 6 10 1015.8 1015.2 0.0
16/11:30am 29.5 25.0 -11.8 6 16.1 N 7 19 4 10 1016.3 1015.7 0.0
16/11:00am 27.7 23.4 -11.2 7 15.1 ENE 6 11 3 6 1016.8 1016.2 0.0
16/10:30am 26.9 23.1 -10.1 8 14.5 S 4 9 2 5 1017.2 1016.6 0.0
16/10:00am 25.3 22.1 -7.2 11 13.2 SE 2 6 1 3 1017.5 1016.9 0.0
16/09:30am 22.6 19.5 -6.2 14 11.6 SSW 2 6 1 3 1017.8 1017.1 0.0
16/09:00am 19.9 16.8 -5.8 17 10.2 WSW 2 6 1 3 1017.9 1017.2 0.0
16/08:30am 17.6 14.2 -5.6 20 9.0 SW 4 6 2 3 1017.6 1017.0 0.0
16/08:00am 15.1 11.6 -5.9 23 7.9 SW 4 6 2 3 1017.4 1016.8 0.0
16/07:30am 13.2 10.3 -4.4 29 6.7 S 2 4 1 2 1017.1 1016.5 0.0
16/07:00am 9.4 6.2 -3.8 39 4.9 S 4 6 2 3 1016.9 1016.3 0.0
16/06:30am 7.9 5.4 -4.2 42 4.3 CALM 0 0 0 0 1016.6 1016.0 0.0
16/06:00am 7.6 5.1 -4.2 43 4.2 CALM 0 0 0 0 1016.5 1015.9 0.0
16/05:30am 8.8 6.0 -3.7 41 4.6 SSW 2 6 1 3 1016.2 1015.6 0.0
16/05:00am 8.7 6.2 -4.1 40 4.6 CALM 0 0 0 0 1016.0 1015.4 0.0
16/04:30am 10.1 7.6 -3.9 37 5.2 CALM 0 0 0 0 1015.8 1015.2 0.0
16/04:00am 11.8 9.4 -3.5 34 5.8 CALM 0 0 0 0 1015.9 1015.3 0.0
16/03:30am 13.8 10.5 -4.4 28 7.0 SSW 4 7 2 4 1015.7 1015.1 0.0
16/03:00am 15.4 10.8 -4.0 26 7.6 SW 11 15 6 8 1015.8 1015.2 0.0
16/02:30am 14.9 10.7 -3.9 27 7.4 SSW 9 13 5 7 1015.9 1015.3 0.0
16/02:00am 12.4 8.5 -4.7 30 6.4 SW 7 11 4 6 1016.2 1015.6 0.0
16/01:30am 10.9 7.4 -6.0 30 6.0 SW 4 6 2 3 1016.3 1015.7 0.0
16/01:00am 11.4 7.9 -6.4 28 6.3 S 4 4 2 2 1016.6 1016.0 0.0
16/12:30am 12.1 9.0 -6.3 27 6.6 SSE 2 4 1 2 1016.9 1016.3 0.0
16/12:00am 14.2 10.7 -6.1 24 7.5 ESE 4 4 2 2 1017.1 1016.5 0.0
 
Date/Time
WST
Temp
°C
App
Temp
°C
Dew
Point
°C
Rel
Hum
%
Delta-T
°C
Wind Press
QNH
hPa
Press
MSL
hPa
Rain since
9am
mm
Dir  Spd
km/h
Gust
km/h
Spd
kts
Gust
kts
15/11:30pm 12.5 8.6 -6.5 26 6.8 ESE 6 9 3 5 1017.3 1016.7 0.0
15/11:00pm 13.5 10.8 -6.1 25 7.2 CALM 0 6 0 3 1017.3 1016.7 0.0
15/10:30pm 13.4 10.6 -6.7 24 7.3 CALM 0 6 0 3 1017.4 1016.8 0.0
15/10:00pm 15.0 12.2 -7.1 21 8.1 CALM 0 0 0 0 1017.4 1016.8 0.0
15/09:30pm 15.5 11.8 -8.0 19 8.5 NW 4 9 2 5 1017.4 1016.8 0.0
15/09:00pm 14.9 12.0 -8.5 19 8.3 CALM 0 0 0 0 1017.3 1016.7 0.0
15/08:30pm 15.8 12.9 -8.4 18 8.7 CALM 0 0 0 0 1017.3 1016.7 0.0
15/08:00pm 16.2 13.3 -8.1 18 8.8 CALM 0 0 0 0 1017.3 1016.7 0.0
15/07:30pm 18.5 15.1 -9.5 14 10.1 WNW 2 2 1 1 1017.0 1016.4 0.0
15/07:00pm 18.9 15.1 -10.1 13 10.4 NE 4 6 2 3 1016.7 1016.1 0.0
15/06:30pm 22.1 18.1 -12.2 9 12.3 ENE 4 6 2 3 1016.3 1015.7 0.0
15/06:00pm 23.9 19.9 -12.3 8 13.2 NE 4 6 2 3 1015.9 1015.3 0.0
15/05:30pm 26.2 22.2 -12.3 7 14.4 ENE 4 6 2 3 1015.6 1015.0 0.0
15/05:00pm 27.5 23.5 -13.2 6 15.2 ENE 4 7 2 4 1015.5 1014.9 0.0
15/04:30pm 28.1 24.1 -12.8 6 15.5 ESE 4 9 2 5 1015.5 1014.9 0.0
15/04:00pm 28.3 23.7 -12.7 6 15.6 ENE 7 15 4 8 1015.5 1014.9 0.0
15/03:30pm 28.5 23.9 -12.5 6 15.7 NNE 7 15 4 8 1015.6 1015.0 0.0
15/03:00pm 28.4 23.1 -12.6 6 15.6 E 11 17 6 9 1015.7 1015.1 0.0
15/02:30pm 28.8 24.4 -12.3 6 15.8 SSW 6 13 3 7 1016.0 1015.4 0.0
15/02:00pm 28.5 23.2 -12.5 6 15.6 E 11 19 6 10 1016.4 1015.8 0.0
15/01:30pm 28.0 23.4 -12.9 6 15.4 ENE 7 15 4 8 1016.8 1016.2 0.0
15/01:00pm 28.5 24.1 -12.5 6 15.6 ESE 6 13 3 7 1017.3 1016.7 0.0
15/12:30pm 27.9 23.4 -11.0 7 15.2 SSE 7 13 4 7 1017.8 1017.1 0.0
15/12:00pm 27.4 23.1 -11.4 7 14.9 ENE 6 11 3 6 1018.1 1017.4 0.0
15/11:30am 27.2 22.7 -11.5 7 14.8 NE 7 17 4 9 1018.8 1018.1 0.0
15/11:00am 26.2 21.4 -10.6 8 14.2 E 9 17 5 9 1019.4 1018.7 0.0
15/10:30am 25.6 21.3 -11.1 8 13.9 ESE 6 11 3 6 1019.9 1019.3 0.0
15/10:00am 24.3 20.1 -10.6 9 13.2 NE 6 9 3 5 1020.3 1019.7 0.0
15/09:30am 22.8 18.7 -9.2 11 12.2 ENE 6 9 3 5 1020.6 1020.0 0.0
15/09:00am 21.3 18.4 -8.2 13 11.3 CALM 0 4 0 2 1020.4 1019.8 0.0
15/08:30am 17.9 14.3 -7.5 17 9.5 SW 4 6 2 3 1020.3 1019.7 0.0
15/08:00am 15.0 12.2 -6.5 22 7.9 CALM 0 2 0 1 1020.2 1019.6 0.0
15/07:30am 13.2 9.7 -5.9 26 7.0 SSE 4 6 2 3 1020.0 1019.4 0.0
15/07:00am 9.5 6.4 -5.9 33 5.4 S 2 4 1 2 1019.7 1019.0 0.0
15/06:30am 7.8 4.6 -6.7 35 4.9 S 2 6 1 3 1019.4 1018.7 0.0
15/06:00am 5.9 3.2 -6.3 41 4.0 CALM 0 0 0 0 1019.1 1018.4 0.0
15/05:30am 7.5 4.4 -6.2 37 4.7 SSE 2 2 1 1 1018.8 1018.1 0.0
15/05:00am 8.0 4.8 -6.9 34 5.0 SSE 2 4 1 2 1018.6 1017.9 0.0
15/04:30am 8.6 5.8 -6.7 33 5.2 CALM 0 0 0 0 1018.4 1017.7 0.0
15/04:00am 7.3 4.5 -6.8 36 4.7 CALM 0 2 0 1 1018.4 1017.7 0.0
15/03:30am 8.4 5.2 -6.9 33 5.2 SSW 2 4 1 2 1018.6 1017.9 0.0
15/03:00am 8.5 5.3 -7.2 32 5.3 S 2 4 1 2 1018.6 1017.9 0.0
15/02:30am 8.3 5.5 -6.6 34 5.1 CALM 0 0 0 0 1018.7 1018.0 0.0
15/02:00am 8.6 5.8 -7.1 32 5.3 CALM 0 0 0 0 1018.8 1018.1 0.0
15/01:30am 9.1 6.2 -7.5 30 5.6 CALM 0 2 0 1 1019.0 1018.3 0.0
15/01:00am 9.7 6.9 -7.0 30 5.7 CALM 0 4 0 2 1019.2 1018.5 0.0
15/12:30am 10.7 7.8 -7.5 27 6.2 CALM 0 0 0 0 1019.4 1018.7 0.0
15/12:00am 10.4 7.2 -7.3 28 6.1 SE 2 4 1 2 1019.6 1018.9 0.0
 
Date/Time
WST
Temp
°C
App
Temp
°C
Dew
Point
°C
Rel
Hum
%
Delta-T
°C
Wind Press
QNH
hPa
Press
MSL
hPa
Rain since
9am
mm
Dir  Spd
km/h
Gust
km/h
Spd
kts
Gust
kts
14/11:30pm 11.9 8.3 -7.0 26 6.7 SSW 4 6 2 3 1019.7 1019.0 0.0
14/11:00pm 12.1 9.2 -7.8 24 6.9 CALM 0 0 0 0 1019.9 1019.3 0.0
14/10:30pm 12.5 8.9 -7.5 24 7.0 NNE 4 13 2 7 1019.6 1018.9 0.0
14/10:00pm 11.8 8.9 -7.6 25 6.7 CALM 0 0 0 0 1019.5 1018.8 0.0
14/09:30pm 12.8 10.0 -7.2 24 7.1 CALM 0 0 0 0 1019.4 1018.7 0.0
14/09:00pm 14.9 11.2 -8.5 19 8.3 SSE 4 6 2 3 1019.5 1018.8 0.0
14/08:30pm 14.7 11.8 -8.0 20 8.1 CALM 0 0 0 0 1019.4 1018.7 0.0
14/08:00pm 15.6 12.8 -7.2 20 8.3 CALM 0 0 0 0 1019.2 1018.5 0.0
14/07:30pm 16.7 13.8 -8.4 17 9.1 CALM 0 2 0 1 1018.8 1018.1 0.0
14/07:00pm 18.1 14.8 -8.1 16 9.7 SE 2 2 1 1 1018.3 1017.6 0.0
14/06:30pm 19.4 16.4 -9.7 13 10.6 CALM 0 0 0 0 1018.1 1017.4 0.0
14/06:00pm 21.9 18.8 -11.1 10 12.0 CALM 0 0 0 0 1017.9 1017.2 0.0
14/05:30pm 25.3 21.4 -11.3 8 13.8 NE 4 6 2 3 1017.8 1017.1 0.0
14/05:00pm 26.3 22.3 -12.2 7 14.4 ENE 4 9 2 5 1017.8 1017.1 0.0
14/04:30pm 26.9 23.0 -11.8 7 14.7 ENE 4 9 2 5 1017.6 1017.0 0.0
14/04:00pm 27.4 23.5 -11.4 7 14.9 E 4 11 2 6 1017.5 1016.9 0.0
14/03:30pm 27.0 22.5 -11.7 7 14.8 NE 7 15 4 8 1017.5 1016.9 0.0
14/03:00pm 27.3 22.4 -11.5 7 14.9 ESE 9 19 5 10 1017.6 1017.0 0.0
14/02:30pm 27.2 22.9 -11.5 7 14.8 E 6 9 3 5 1018.0 1017.3 0.0
14/02:00pm 27.1 21.5 -11.6 7 14.8 ESE 13 20 7 11 1018.4 1017.7 0.0
14/01:30pm 26.5 21.2 -12.1 7 14.5 E 11 20 6 11 1018.8 1018.1 0.0
14/01:00pm 26.3 21.0 -12.2 7 14.4 ESE 11 20 6 11 1019.3 1018.6 0.0
14/12:30pm 26.0 21.2 -10.8 8 14.1 ENE 9 17 5 9 1019.9 1019.3 0.0
14/12:00pm 25.6 20.8 -11.1 8 13.9 ENE 9 19 5 10 1020.5 1019.9 0.0
14/11:30am 25.3 20.1 -11.3 8 13.8 E 11 20 6 11 1021.2 1020.6 0.0
14/11:00am 24.7 19.5 -10.3 9 13.3 ENE 11 19 6 10 1021.7 1021.1 0.0
14/10:30am 24.0 18.5 -9.5 10 12.9 ENE 13 20 7 11 1022.2 1021.6 0.0
14/10:00am 23.6 17.3 -9.8 10 12.7 ENE 17 26 9 14 1022.5 1021.9 0.0
14/09:30am 22.3 16.9 -8.4 12 11.8 E 13 19 7 10 1022.8 1022.2 0.0
14/09:00am 20.8 16.7 -6.7 15 10.8 ENE 7 11 4 6 1022.9 1022.3 0.0
14/08:30am 19.1 15.0 -6.5 17 9.9 E 7 11 4 6 1022.8 1022.2 0.0
14/08:00am 16.4 13.8 -5.3 22 8.3 CALM 0 2 0 1 1022.6 1022.0 0.0
14/07:30am 12.2 9.6 -4.8 30 6.3 CALM 0 0 0 0 1022.5 1021.9 0.0
14/07:00am 8.9 5.9 -5.3 36 5.0 SSW 2 4 1 2 1022.4 1021.8 0.0
14/06:30am 6.5 3.0 -5.8 41 4.2 SW 4 6 2 3 1022.0 1021.4 0.0
14/06:00am 6.7 4.0 -6.3 39 4.3 CALM 0 0 0 0 1021.7 1021.1 0.0
14/05:30am 6.7 4.0 -6.3 39 4.4 CALM 0 4 0 2 1021.3 1020.7 0.0
14/05:00am 6.6 3.8 -6.7 38 4.4 CALM 0 0 0 0 1021.2 1020.6 0.0
14/04:30am 6.8 4.0 -6.5 38 4.4 CALM 0 0 0 0 1021.1 1020.5 0.0
14/04:00am 7.8 4.6 -7.1 34 4.9 SSE 2 2 1 1 1021.0 1020.4 0.0
14/03:30am 7.1 4.3 -6.9 36 4.6 CALM 0 2 0 1 1021.1 1020.5 0.0
14/03:00am 8.6 5.8 -7.1 32 5.3 CALM 0 0 0 0 1021.2 1020.6 0.0
14/02:30am 8.7 5.9 -7.0 32 5.3 CALM 0 0 0 0 1021.2 1020.6 0.0
14/02:00am 10.2 7.4 -7.0 29 5.9 CALM 0 0 0 0 1021.2 1020.6 0.0
14/01:30am 10.7 6.8 -7.0 28 6.1 NW 6 7 3 4 1021.3 1020.7 0.0
14/01:00am 11.2 8.0 -7.6 26 6.5 ENE 2 4 1 2 1021.1 1020.5 0.0
14/12:30am 15.6 11.6 -7.9 19 8.5 E 6 9 3 5 1021.2 1020.6 0.0
14/12:00am 16.3 12.1 -8.0 18 8.8 E 7 9 4 5 1021.1 1020.5 0.0
 
Date/Time
WST
Temp
°C
App
Temp
°C
Dew
Point
°C
Rel
Hum
%
Delta-T
°C
Wind Press
QNH
hPa
Press
MSL
hPa
Rain since
9am
mm
Dir  Spd
km/h
Gust
km/h
Spd
kts
Gust
kts
13/11:30pm 16.5 12.8 -8.6 17 9.0 ESE 4 7 2 4 1021.2 1020.6 0.0
13/11:00pm 16.9 12.7 -8.3 17 9.1 ESE 7 9 4 5 1021.0 1020.4 0.0
13/10:30pm 17.0 12.8 -8.2 17 9.2 ESE 7 9 4 5 1020.9 1020.3 0.0
13/10:00pm 15.1 11.5 -7.7 20 8.2 ESE 4 6 2 3 1021.1 1020.5 0.0
13/09:30pm 15.5 12.2 -8.0 19 8.5 SE 2 6 1 3 1021.1 1020.5 0.0
13/09:00pm 15.3 11.3 -7.5 20 8.3 ESE 6 7 3 4 1021.2 1020.6 0.0
13/08:30pm 15.5 11.8 -8.0 19 8.5 ESE 4 7 2 4 1021.0 1020.4 0.0
13/08:00pm 16.0 13.1 -8.3 18 8.7 CALM 0 0 0 0 1020.7 1020.1 0.0
13/07:30pm 17.1 13.8 -8.9 16 9.4 SSE 2 4 1 2 1020.5 1019.9 0.0
13/07:00pm 19.2 15.5 -8.9 14 10.3 E 4 6 2 3 1020.1 1019.5 0.0
13/06:30pm 20.9 16.7 -9.5 12 11.3 E 6 7 3 4 1019.8 1019.2 0.0
13/06:00pm 22.2 17.9 -10.8 10 12.1 E 6 6 3 3 1019.6 1018.9 0.0

Other Formats:

Comma delimited format used in spreadsheet applications
http://www.bom.gov.au/fwo/IDW60801/IDW60801.95317.axf

JavaScript Object Notation format (JSON) in row-major order
http://www.bom.gov.au/fwo/IDW60801/IDW60801.95317.json